createdAt,value
2023-10-12T00:00:44.831Z,13.75
2023-10-12T00:03:32.309Z,13.80
2023-10-12T00:06:00.702Z,13.70
2023-10-12T00:08:32.002Z,13.74
2023-10-12T00:11:08.946Z,13.69
2023-10-12T00:13:42.750Z,13.52
2023-10-12T00:16:11.257Z,13.67
2023-10-12T00:18:39.985Z,13.58
2023-10-12T00:21:16.561Z,13.64
2023-10-12T00:23:45.385Z,13.56
2023-10-12T00:26:14.844Z,13.58
2023-10-12T00:28:46.322Z,13.60
2023-10-12T00:31:21.278Z,13.54
2023-10-12T00:33:49.967Z,13.46
2023-10-12T00:36:26.048Z,13.48
2023-10-12T00:38:57.941Z,13.39
2023-10-12T00:41:26.546Z,13.46
2023-10-12T00:44:19.041Z,13.47
2023-10-12T00:46:58.700Z,13.43
2023-10-12T00:49:29.780Z,13.37
2023-10-12T00:52:10.312Z,13.35
2023-10-12T00:54:40.781Z,13.30
2023-10-12T00:57:10.874Z,13.27
2023-10-12T00:59:39.356Z,13.30
2023-10-12T01:02:16.901Z,13.25
2023-10-12T01:04:49.973Z,13.20
2023-10-12T01:07:21.601Z,13.32
2023-10-12T01:09:55.683Z,13.29
2023-10-12T01:12:31.926Z,13.22
2023-10-12T01:15:01.370Z,13.25
2023-10-12T01:17:35.970Z,13.40
2023-10-12T01:20:18.598Z,13.42
2023-10-12T01:22:49.387Z,13.40
2023-10-12T01:25:30.301Z,13.40
2023-10-12T06:03:17.416Z,23.32
2023-10-12T06:03:57.840Z,-146.89
2023-10-12T06:04:30.611Z,-146.89
2023-10-12T06:05:07.136Z,-146.89
2023-10-12T06:06:45.157Z,-146.89
2023-10-12T06:25:23.465Z,23.12
2023-10-12T06:26:07.281Z,22.71
2023-10-12T06:28:58.714Z,-146.89
2023-10-12T06:31:31.113Z,-146.89
2023-10-12T06:35:04.485Z,-146.89
2023-10-12T06:38:50.535Z,-146.89
2023-10-12T06:41:57.714Z,-146.89
2023-10-12T06:45:27.735Z,-146.89
2023-10-12T07:14:32.044Z,24.69
2023-10-12T07:19:14.753Z,23.91
2023-10-12T07:21:44.549Z,21.23
2023-10-12T07:24:11.957Z,20.19
2023-10-12T07:26:40.552Z,-146.89
2023-10-12T07:29:17.967Z,20.46
2023-10-12T07:31:52.942Z,20.45
2023-10-12T07:34:25.323Z,-146.89
2023-10-12T07:36:59.177Z,-146.89
2023-10-12T07:40:20.978Z,-146.89
2023-10-12T07:42:53.509Z,-146.89
2023-10-12T07:46:30.976Z,-146.89
2023-10-12T07:49:58.990Z,-146.89
2023-10-12T07:53:30.323Z,-146.89
2023-10-12T08:32:31.407Z,24.01
2023-10-12T08:35:40.258Z,23.48
2023-10-12T08:38:16.612Z,23.55
2023-10-12T08:41:17.788Z,23.78
2023-10-12T08:43:50.138Z,23.79
2023-10-12T08:46:39.783Z,23.74
2023-10-12T08:49:28.524Z,24.27
2023-10-12T08:52:06.422Z,23.52
2023-10-12T08:54:38.633Z,23.73
2023-10-12T08:57:20.841Z,24.56
2023-10-12T09:00:20.036Z,25.10
2023-10-12T09:03:03.930Z,25.22
2023-10-12T09:05:35.309Z,25.24
2023-10-12T09:08:16.780Z,25.05
2023-10-12T09:11:05.940Z,25.46
2023-10-12T09:13:36.032Z,25.96
2023-10-12T09:16:16.366Z,25.61
2023-10-12T09:19:02.227Z,25.84
2023-10-12T09:21:58.907Z,26.18
2023-10-12T09:24:30.647Z,26.52
2023-10-12T09:27:04.233Z,25.80
2023-10-12T09:29:44.992Z,25.04
2023-10-12T09:32:16.039Z,25.27
2023-10-12T09:35:10.038Z,25.70
2023-10-12T09:37:52.944Z,25.45
2023-10-12T09:40:26.617Z,26.07
2023-10-12T09:43:00.761Z,26.64
2023-10-12T09:45:36.820Z,27.11
2023-10-12T09:48:12.861Z,26.35
2023-10-12T09:50:42.157Z,26.66
2023-10-12T09:53:15.686Z,26.45
2023-10-12T09:55:56.052Z,26.43
2023-10-12T09:58:25.115Z,26.76
2023-10-12T10:01:09.822Z,26.16
2023-10-12T10:03:52.588Z,26.29
2023-10-12T10:06:38.937Z,27.13
2023-10-12T10:09:19.617Z,27.19
2023-10-12T10:11:58.975Z,27.31
2023-10-12T10:14:35.725Z,27.08
2023-10-12T10:17:03.779Z,27.20
2023-10-12T10:19:33.897Z,27.37
2023-10-12T10:22:07.469Z,26.92
2023-10-12T10:24:42.575Z,27.05
2023-10-12T10:27:15.361Z,26.89
2023-10-12T10:29:56.810Z,27.46
2023-10-12T10:32:31.722Z,27.02
2023-10-12T10:35:14.469Z,27.11
2023-10-12T10:38:10.501Z,26.94
2023-10-12T10:40:49.936Z,27.12
2023-10-12T10:43:18.059Z,27.90
2023-10-12T10:46:01.893Z,28.22
2023-10-12T10:51:09.381Z,27.98
2023-10-12T10:53:42.675Z,28.71
2023-10-12T10:56:33.919Z,28.85
2023-10-12T11:12:52.736Z,29.00
2023-10-12T11:15:23.040Z,28.54
2023-10-12T11:17:58.419Z,28.60
2023-10-12T11:20:46.677Z,28.75
2023-10-12T11:23:16.371Z,28.73
2023-10-12T11:25:49.374Z,28.30
2023-10-12T11:28:24.945Z,29.12
2023-10-12T11:31:06.509Z,29.30
2023-10-12T11:33:37.763Z,29.25
2023-10-12T11:36:06.331Z,29.37
2023-10-12T11:38:34.922Z,28.92
2023-10-12T11:41:18.175Z,29.20
2023-10-12T11:43:51.890Z,29.23
2023-10-12T11:46:19.994Z,29.62
2023-10-12T11:49:07.783Z,29.70
2023-10-12T11:51:57.788Z,29.62
2023-10-12T11:54:34.965Z,29.31
2023-10-12T11:57:05.668Z,29.19
2023-10-12T11:59:36.782Z,29.33
2023-10-12T12:02:12.712Z,29.36
2023-10-12T12:04:50.219Z,28.98
2023-10-12T12:07:31.409Z,29.46
2023-10-12T12:10:03.246Z,29.73
2023-10-12T12:12:35.529Z,29.42
2023-10-12T12:15:06.768Z,30.06
2023-10-12T12:17:36.532Z,29.97
2023-10-12T12:20:22.442Z,29.94
2023-10-12T12:22:50.020Z,29.78
2023-10-12T12:25:22.684Z,29.92
2023-10-12T12:27:50.476Z,29.68
2023-10-12T12:30:57.037Z,29.55
2023-10-12T12:33:18.295Z,30.26
2023-10-12T12:35:52.156Z,30.19
2023-10-12T12:38:35.245Z,30.19
2023-10-12T12:41:31.784Z,30.44
2023-10-12T12:44:00.644Z,30.56
2023-10-12T12:46:31.868Z,30.07
2023-10-12T12:48:59.488Z,29.92
2023-10-12T12:51:31.096Z,30.33
2023-10-12T12:53:58.608Z,30.12
2023-10-12T12:56:28.857Z,29.73
2023-10-12T12:58:56.843Z,29.80
2023-10-12T13:01:26.410Z,29.69
2023-10-12T13:04:02.908Z,29.72
2023-10-12T13:06:36.225Z,29.64
2023-10-12T13:09:05.146Z,30.17
2023-10-12T13:11:37.666Z,30.07
2023-10-12T13:14:09.889Z,29.65
2023-10-12T13:17:05.950Z,30.14
2023-10-12T13:19:37.931Z,29.59
2023-10-12T13:22:19.379Z,29.46
2023-10-12T14:34:27.414Z,27.78
2023-10-12T14:41:39.426Z,27.58
2023-10-12T14:44:18.644Z,27.48
2023-10-12T14:46:47.576Z,27.25
2023-10-12T14:50:15.233Z,27.12
2023-10-12T14:52:46.513Z,26.91
2023-10-12T14:55:40.790Z,27.04
2023-10-12T15:06:47.523Z,26.77
2023-10-12T15:09:37.269Z,26.76
2023-10-12T15:13:05.491Z,26.80
2023-10-12T15:27:00.107Z,26.16
2023-10-12T15:39:17.462Z,25.18
2023-10-12T15:41:50.235Z,25.07
2023-10-12T15:44:34.094Z,24.82
2023-10-12T15:52:01.563Z,24.67
2023-10-12T16:00:06.457Z,23.54
2023-10-12T16:03:04.566Z,23.33
2023-10-12T16:06:00.288Z,23.19
2023-10-12T16:08:30.944Z,23.11
2023-10-12T16:11:01.818Z,23.21
2023-10-12T16:13:37.789Z,23.06
2023-10-12T16:16:14.648Z,23.09
2023-10-12T16:18:45.421Z,23.08
2023-10-12T16:21:18.833Z,22.91
2023-10-12T16:23:48.291Z,22.76
2023-10-12T16:26:16.344Z,22.46
2023-10-12T16:28:47.846Z,22.48
2023-10-12T16:31:15.330Z,22.51
2023-10-12T16:33:43.235Z,22.36
2023-10-12T16:36:12.919Z,22.23
2023-10-12T16:38:42.425Z,22.11
2023-10-12T16:41:10.255Z,22.16
2023-10-12T16:43:39.269Z,22.11
2023-10-12T16:46:08.702Z,21.92
2023-10-12T16:48:37.494Z,21.73
2023-10-12T16:51:07.370Z,21.60
2023-10-12T16:53:38.465Z,21.54
2023-10-12T16:56:14.342Z,21.63
2023-10-12T16:58:42.905Z,21.60
2023-10-12T17:01:15.967Z,21.57
2023-10-12T17:03:45.098Z,21.46
2023-10-12T17:06:17.012Z,21.72
2023-10-12T17:08:45.286Z,21.61
2023-10-12T17:11:13.347Z,21.53
2023-10-12T17:13:41.109Z,21.13
2023-10-12T17:16:08.984Z,21.30
2023-10-12T17:18:38.410Z,21.55
2023-10-12T17:21:13.968Z,21.27
2023-10-12T17:23:42.010Z,21.47
2023-10-12T17:26:14.352Z,21.36
2023-10-12T17:28:42.970Z,20.94
2023-10-12T17:31:12.459Z,21.44
2023-10-12T17:33:42.575Z,21.42
2023-10-12T17:36:14.259Z,21.08
2023-10-12T17:38:45.664Z,21.56
2023-10-12T17:41:46.297Z,21.62
2023-10-12T17:44:18.187Z,21.40
2023-10-12T17:46:49.394Z,21.43
2023-10-12T17:49:22.707Z,21.32
2023-10-12T17:51:54.351Z,21.33
2023-10-12T18:04:10.899Z,21.14
2023-10-12T18:07:35.622Z,20.76
2023-10-12T18:16:19.794Z,21.01
2023-10-12T18:19:20.879Z,20.26
2023-10-12T18:22:03.093Z,19.80
2023-10-12T18:24:43.910Z,19.66
2023-10-12T18:27:39.681Z,19.47
2023-10-12T18:30:13.410Z,19.51
2023-10-12T18:33:06.188Z,19.45
2023-10-12T18:35:38.289Z,19.38
2023-10-12T18:38:16.060Z,19.35
2023-10-12T18:40:51.814Z,19.43
2023-10-12T18:43:27.060Z,19.42
2023-10-12T18:45:58.202Z,19.39
2023-10-12T18:48:35.038Z,19.37
2023-10-12T18:51:16.267Z,19.33
2023-10-12T18:53:52.096Z,19.35
2023-10-12T18:56:27.848Z,19.30
2023-10-12T18:59:26.919Z,19.26
2023-10-12T19:02:10.030Z,19.15
2023-10-12T19:04:44.143Z,19.17
2023-10-12T19:07:29.100Z,19.26
2023-10-12T19:10:02.697Z,19.20
2023-10-12T19:13:13.597Z,19.22
2023-10-12T19:15:52.282Z,19.27
2023-10-12T19:18:25.896Z,19.29
2023-10-12T19:21:08.515Z,19.26
2023-10-12T19:23:48.141Z,19.16
2023-10-12T19:26:47.079Z,19.07
2023-10-12T19:29:19.698Z,18.97
2023-10-12T19:31:57.609Z,18.96
2023-10-12T19:34:47.101Z,19.06
2023-10-12T19:37:17.556Z,19.13
2023-10-12T19:40:43.124Z,19.14
2023-10-12T19:43:47.271Z,19.14
2023-10-12T19:46:34.871Z,19.00
2023-10-12T19:49:49.266Z,19.01
2023-10-12T19:53:32.990Z,18.93
2023-10-12T19:56:16.988Z,18.89
2023-10-12T19:58:59.147Z,18.77
2023-10-12T20:01:49.589Z,18.64
2023-10-12T20:04:25.262Z,18.52
2023-10-12T20:06:58.959Z,18.50
2023-10-12T20:09:54.992Z,18.50
2023-10-12T20:12:57.476Z,18.52
2023-10-12T20:15:32.498Z,18.62
2023-10-12T20:18:09.034Z,18.51
2023-10-12T20:20:49.062Z,18.38
2023-10-12T20:23:20.451Z,18.33
2023-10-12T20:25:56.855Z,18.29
2023-10-12T20:28:34.080Z,18.17
2023-10-12T20:31:22.473Z,18.22
2023-10-12T20:33:54.388Z,18.21
2023-10-12T20:36:41.535Z,18.16
2023-10-12T20:39:11.989Z,18.12
2023-10-12T20:41:50.300Z,18.07
2023-10-12T20:44:21.772Z,17.99
2023-10-12T20:46:57.076Z,17.95
2023-10-12T20:49:34.788Z,17.89
2023-10-12T20:52:27.369Z,17.82
2023-10-12T20:55:07.013Z,17.79
2023-10-12T20:57:42.646Z,17.79
2023-10-12T21:00:18.181Z,17.76
2023-10-12T21:02:49.043Z,17.64
2023-10-12T21:05:28.425Z,17.61
2023-10-12T21:07:57.553Z,17.59
2023-10-12T21:10:25.267Z,17.49
2023-10-12T21:12:52.942Z,17.44
2023-10-12T21:15:23.141Z,17.41
2023-10-12T21:17:58.679Z,17.35
2023-10-12T21:20:44.989Z,17.31
2023-10-12T21:23:21.358Z,17.31
2023-10-12T21:25:51.438Z,17.30
2023-10-12T21:28:23.446Z,17.26
2023-10-12T21:30:52.426Z,17.19
2023-10-12T21:33:22.398Z,17.17
2023-10-12T21:35:51.630Z,17.21
2023-10-12T21:38:24.277Z,17.23
2023-10-12T21:41:06.346Z,17.27
2023-10-12T21:43:35.995Z,17.21
2023-10-12T21:46:08.566Z,17.16
2023-10-12T21:48:37.994Z,17.20
2023-10-12T21:51:07.079Z,17.16
2023-10-12T21:53:40.015Z,17.15
2023-10-12T21:56:07.339Z,17.12
2023-10-12T21:58:35.146Z,17.14
2023-10-12T22:01:09.178Z,17.14
2023-10-12T22:03:40.667Z,17.05
2023-10-12T22:06:14.767Z,16.96
2023-10-12T22:08:44.403Z,16.94
2023-10-12T22:11:15.649Z,16.95
2023-10-12T22:13:56.243Z,16.87
2023-10-12T22:16:35.307Z,16.81
2023-10-12T22:19:07.018Z,16.80
2023-10-12T22:21:34.511Z,16.79
2023-10-12T22:24:02.476Z,16.79
2023-10-12T22:26:29.826Z,16.77
2023-10-12T22:28:57.555Z,16.79
2023-10-12T22:31:26.839Z,16.74
2023-10-12T22:33:54.631Z,16.67
2023-10-12T22:36:24.060Z,16.65
2023-10-12T22:38:53.777Z,16.58
2023-10-12T22:41:22.304Z,16.54
2023-10-12T22:43:51.486Z,16.52
2023-10-12T22:46:20.372Z,16.53
2023-10-12T22:48:50.075Z,16.57
2023-10-12T22:51:21.065Z,16.65
2023-10-12T22:53:49.181Z,16.81
2023-10-12T22:56:16.700Z,16.93
2023-10-12T22:58:44.641Z,16.95
2023-10-12T23:01:13.981Z,16.89
2023-10-12T23:03:43.778Z,16.79
2023-10-12T23:06:14.190Z,16.70
2023-10-12T23:08:44.588Z,16.56
2023-10-12T23:11:19.868Z,16.54
2023-10-12T23:13:50.777Z,16.54
2023-10-12T23:16:28.200Z,16.49
2023-10-12T23:18:57.508Z,16.44
2023-10-12T23:21:40.969Z,16.46
2023-10-12T23:24:23.417Z,16.50
2023-10-12T23:26:53.948Z,16.43
2023-10-12T23:29:24.024Z,16.53
2023-10-12T23:31:55.370Z,16.60
2023-10-12T23:34:26.839Z,16.66
2023-10-12T23:37:02.003Z,16.69
2023-10-12T23:39:53.730Z,16.69
2023-10-12T23:42:23.806Z,16.60
2023-10-12T23:44:56.889Z,16.59
2023-10-12T23:47:41.843Z,16.57
2023-10-12T23:50:11.203Z,16.49
2023-10-12T23:52:58.718Z,16.46
2023-10-12T23:55:33.935Z,16.45
2023-10-12T23:58:13.933Z,16.43
